createdAt,value
2019-03-30T00:01:23.621Z,14.93
2019-03-30T00:03:52.193Z,12.43
2019-03-30T00:06:20.434Z,14.70
2019-03-30T00:08:48.840Z,12.90
2019-03-30T00:11:17.124Z,13.20
2019-03-30T00:13:45.464Z,15.43
2019-03-30T00:16:13.700Z,14.43
2019-03-30T00:18:42.027Z,14.77
2019-03-30T00:21:10.342Z,13.70
2019-03-30T00:23:38.739Z,12.13
2019-03-30T00:26:07.032Z,12.07
2019-03-30T00:28:35.429Z,13.50
2019-03-30T00:31:03.711Z,14.60
2019-03-30T00:33:32.042Z,13.63
2019-03-30T00:36:00.423Z,11.80
2019-03-30T00:38:28.678Z,12.20
2019-03-30T00:40:56.969Z,13.00
2019-03-30T00:43:25.430Z,13.50
2019-03-30T00:45:53.840Z,11.13
2019-03-30T00:48:22.011Z,13.73
2019-03-30T00:50:50.402Z,11.13
2019-03-30T00:53:18.781Z,10.77
2019-03-30T00:55:47.226Z,13.57
2019-03-30T00:58:15.651Z,11.23
2019-03-30T01:00:44.996Z,11.70
2019-03-30T01:03:13.383Z,12.67
2019-03-30T01:05:41.711Z,12.10
2019-03-30T01:08:09.985Z,13.00
2019-03-30T01:10:38.460Z,12.33
2019-03-30T01:13:06.831Z,12.93
2019-03-30T01:15:35.203Z,11.00
2019-03-30T01:18:03.611Z,12.10
2019-03-30T01:20:31.991Z,12.53
2019-03-30T01:23:00.411Z,12.20
2019-03-30T01:25:28.806Z,11.43
2019-03-30T01:27:57.096Z,10.50
2019-03-30T01:30:25.498Z,11.87
2019-03-30T01:32:53.845Z,13.30
2019-03-30T01:35:22.304Z,12.67
2019-03-30T01:37:51.038Z,11.97
2019-03-30T01:40:19.518Z,11.80
2019-03-30T01:42:47.695Z,12.70
2019-03-30T01:45:16.068Z,10.10
2019-03-30T01:47:44.392Z,13.53
2019-03-30T01:50:17.681Z,10.57
2019-03-30T01:52:43.110Z,10.47
2019-03-30T01:55:11.433Z,10.77
2019-03-30T01:57:39.771Z,10.17
2019-03-30T02:00:09.319Z,11.97
2019-03-30T02:02:38.902Z,11.20
2019-03-30T02:05:07.306Z,13.17
2019-03-30T02:07:35.783Z,10.13
2019-03-30T02:10:04.643Z,10.83
2019-03-30T02:12:34.056Z,12.97
2019-03-30T02:15:02.351Z,13.73
2019-03-30T02:17:30.765Z,12.83
2019-03-30T02:20:00.403Z,13.10
2019-03-30T02:22:28.760Z,14.57
2019-03-30T02:24:57.143Z,13.50
2019-03-30T02:27:25.531Z,10.30
2019-03-30T02:29:54.730Z,10.83
2019-03-30T02:32:23.111Z,13.90
2019-03-30T02:34:51.545Z,12.77
2019-03-30T02:37:19.843Z,12.07
2019-03-30T02:39:48.253Z,13.90
2019-03-30T02:42:16.512Z,13.63
2019-03-30T02:44:44.913Z,13.07
2019-03-30T02:47:13.367Z,11.10
2019-03-30T02:49:41.722Z,12.67
2019-03-30T02:52:10.199Z,12.60
2019-03-30T02:54:38.583Z,13.40
2019-03-30T02:57:06.939Z,12.23
2019-03-30T02:59:35.103Z,14.50
2019-03-30T03:02:04.660Z,13.90
2019-03-30T03:04:33.087Z,11.33
2019-03-30T03:07:01.412Z,13.63
2019-03-30T03:09:29.813Z,13.83
2019-03-30T03:11:58.161Z,13.43
2019-03-30T03:14:26.430Z,12.07
2019-03-30T03:16:54.840Z,14.17
2019-03-30T03:19:23.132Z,13.43
2019-03-30T03:21:51.479Z,15.77
2019-03-30T03:24:19.768Z,14.77
2019-03-30T03:26:49.121Z,13.60
2019-03-30T03:29:17.553Z,15.87
2019-03-30T03:31:46.196Z,12.70
2019-03-30T03:34:14.769Z,13.20
2019-03-30T03:36:43.173Z,16.20
2019-03-30T03:39:11.476Z,12.63
2019-03-30T03:41:39.826Z,14.90
2019-03-30T03:44:08.090Z,16.00
2019-03-30T03:46:36.325Z,14.07
2019-03-30T03:49:04.824Z,17.20
2019-03-30T03:51:33.585Z,15.70
2019-03-30T03:54:02.059Z,16.03
2019-03-30T03:56:30.540Z,15.43
2019-03-30T03:58:59.260Z,15.57
2019-03-30T04:01:27.689Z,16.10
2019-03-30T04:03:57.181Z,15.80
2019-03-30T04:06:26.971Z,13.30
2019-03-30T04:08:56.757Z,15.87
2019-03-30T04:11:26.265Z,13.53
2019-03-30T04:13:56.476Z,15.47
2019-03-30T04:16:24.797Z,15.97
2019-03-30T04:18:53.139Z,17.20
2019-03-30T04:21:21.351Z,16.27
2019-03-30T04:23:53.944Z,17.80
2019-03-30T04:26:19.552Z,17.20
2019-03-30T04:28:47.932Z,16.33
2019-03-30T04:31:16.243Z,18.33
2019-03-30T04:33:44.635Z,15.53
2019-03-30T04:36:13.087Z,16.47
2019-03-30T04:38:41.380Z,16.57
2019-03-30T04:41:09.681Z,17.83
2019-03-30T04:43:37.935Z,15.07
2019-03-30T04:46:06.223Z,18.87
2019-03-30T04:48:34.682Z,18.87
2019-03-30T04:51:03.044Z,16.27
2019-03-30T04:53:31.436Z,17.57
2019-03-30T04:55:59.771Z,17.00
2019-03-30T04:58:28.065Z,17.83
2019-03-30T05:00:56.782Z,16.60
2019-03-30T05:03:25.199Z,16.07
2019-03-30T05:05:53.543Z,19.57
2019-03-30T05:08:21.979Z,20.97
2019-03-30T05:10:50.271Z,15.23
2019-03-30T05:13:18.676Z,19.20
2019-03-30T05:15:47.039Z,17.40
2019-03-30T05:18:15.371Z,15.37
2019-03-30T05:20:43.715Z,19.53
2019-03-30T05:23:12.054Z,19.70
2019-03-30T05:25:40.381Z,18.93
2019-03-30T05:28:08.648Z,21.43
2019-03-30T05:30:37.094Z,16.33
2019-03-30T05:33:06.418Z,18.83
2019-03-30T05:35:35.139Z,21.53
2019-03-30T05:38:03.512Z,16.37
2019-03-30T05:40:31.851Z,16.63
2019-03-30T05:43:00.263Z,20.27
2019-03-30T05:45:28.508Z,20.73
2019-03-30T05:47:57.033Z,19.60
2019-03-30T05:50:25.431Z,22.13
2019-03-30T05:52:53.823Z,19.07
2019-03-30T05:55:22.191Z,19.30
2019-03-30T05:57:50.464Z,20.13
2019-03-30T06:00:20.385Z,21.40
2019-03-30T06:02:48.959Z,23.80
2019-03-30T06:05:17.354Z,20.50
2019-03-30T06:07:45.851Z,16.53
2019-03-30T06:10:14.291Z,18.00
2019-03-30T06:12:42.678Z,17.83
2019-03-30T06:15:11.249Z,17.80
2019-03-30T06:17:39.763Z,23.30
2019-03-30T06:20:08.241Z,17.93
2019-03-30T06:22:40.417Z,19.17
2019-03-30T06:25:06.544Z,21.13
2019-03-30T06:27:34.832Z,21.10
2019-03-30T06:30:04.554Z,18.57
2019-03-30T06:32:32.871Z,23.20
2019-03-30T06:35:01.138Z,19.47
2019-03-30T06:37:29.552Z,17.53
2019-03-30T06:39:57.771Z,21.47
2019-03-30T06:42:25.999Z,20.00
2019-03-30T06:44:54.312Z,19.37
2019-03-30T06:47:22.602Z,21.57
2019-03-30T06:49:50.754Z,17.37
2019-03-30T06:52:19.048Z,18.53
2019-03-30T06:54:47.456Z,24.07
2019-03-30T06:57:15.721Z,21.03
2019-03-30T06:59:44.021Z,19.63
2019-03-30T07:02:12.229Z,20.30
2019-03-30T07:04:40.489Z,19.70
2019-03-30T07:07:09.463Z,21.33
2019-03-30T07:09:38.384Z,20.13
2019-03-30T07:12:07.459Z,18.93
2019-03-30T07:14:37.446Z,18.10
2019-03-30T07:17:07.230Z,19.20
2019-03-30T07:19:36.968Z,17.57
2019-03-30T07:22:05.396Z,20.13
2019-03-30T07:24:33.857Z,17.43
2019-03-30T07:27:02.058Z,18.87
2019-03-30T07:29:30.339Z,17.17
2019-03-30T07:31:58.663Z,18.73
2019-03-30T07:34:27.056Z,16.23
2019-03-30T07:36:55.660Z,18.27
2019-03-30T07:39:24.045Z,15.07
2019-03-30T07:41:52.186Z,17.80
2019-03-30T07:44:20.493Z,16.27
2019-03-30T07:46:48.963Z,15.50
2019-03-30T07:49:17.371Z,17.30
2019-03-30T07:51:45.593Z,17.33
2019-03-30T07:54:13.999Z,18.00
2019-03-30T07:56:42.582Z,17.27
2019-03-30T07:59:10.972Z,17.47
2019-03-30T08:01:39.399Z,16.53
2019-03-30T08:04:07.748Z,13.77
2019-03-30T08:06:37.062Z,16.17
2019-03-30T08:09:05.834Z,18.00
2019-03-30T08:11:34.189Z,10.93
2019-03-30T08:14:02.536Z,13.50
2019-03-30T08:16:30.831Z,12.67
2019-03-30T08:19:00.452Z,16.00
2019-03-30T08:21:29.863Z,13.07
2019-03-30T08:23:58.144Z,14.70
2019-03-30T08:26:26.511Z,16.33
2019-03-30T08:28:54.850Z,13.83
2019-03-30T08:31:23.179Z,12.73
2019-03-30T08:33:52.505Z,13.57
2019-03-30T08:36:20.921Z,11.80
2019-03-30T08:38:49.333Z,13.40
2019-03-30T08:41:17.752Z,12.70
2019-03-30T08:43:46.239Z,13.80
2019-03-30T08:48:57.389Z,15.10
2019-03-30T08:51:25.979Z,13.07
2019-03-30T08:53:55.190Z,14.33
2019-03-30T08:56:23.925Z,13.93
2019-03-30T08:58:52.459Z,13.17
2019-03-30T09:01:20.684Z,13.37
2019-03-30T09:03:48.903Z,15.47
2019-03-30T09:06:17.218Z,14.93
2019-03-30T09:08:45.526Z,11.60
2019-03-30T09:11:14.023Z,15.60
2019-03-30T09:13:42.519Z,14.93
2019-03-30T09:16:10.903Z,10.97
2019-03-30T09:18:39.280Z,15.03
2019-03-30T09:21:07.744Z,15.20
2019-03-30T09:23:36.133Z,17.03
2019-03-30T09:26:04.559Z,12.43
2019-03-30T09:28:32.896Z,15.90
2019-03-30T09:31:01.302Z,14.07
2019-03-30T09:33:29.672Z,16.70
2019-03-30T09:35:57.972Z,15.13
2019-03-30T09:38:26.451Z,14.77
2019-03-30T09:40:54.935Z,15.57
2019-03-30T09:43:23.388Z,15.67
2019-03-30T09:45:51.681Z,17.13
2019-03-30T09:48:20.081Z,15.67
2019-03-30T09:50:48.437Z,13.53
2019-03-30T09:53:17.384Z,15.60
2019-03-30T09:55:45.785Z,12.37
2019-03-30T09:58:14.142Z,14.67
2019-03-30T10:00:42.534Z,16.43
2019-03-30T10:03:11.339Z,16.57
2019-03-30T10:05:39.635Z,16.40
2019-03-30T10:08:07.867Z,17.00
2019-03-30T10:10:36.193Z,15.63
2019-03-30T10:13:04.587Z,18.43
2019-03-30T10:15:33.040Z,15.77
2019-03-30T10:18:01.384Z,14.27
2019-03-30T10:20:30.902Z,15.83
2019-03-30T10:23:00.154Z,16.83
2019-03-30T10:25:28.504Z,16.23
2019-03-30T10:27:56.903Z,15.73
2019-03-30T10:30:25.255Z,15.00
2019-03-30T10:32:53.631Z,18.73
2019-03-30T10:35:21.991Z,16.90
2019-03-30T10:37:50.489Z,15.83
2019-03-30T10:40:20.811Z,17.30
2019-03-30T10:42:48.825Z,15.43
2019-03-30T10:45:17.194Z,14.50
2019-03-30T10:47:45.470Z,12.10
2019-03-30T10:50:13.963Z,15.25
2019-03-30T10:52:42.224Z,15.80
2019-03-30T10:55:10.737Z,14.57
2019-03-30T10:57:39.161Z,10.40
2019-03-30T11:00:09.525Z,11.23
2019-03-30T11:02:38.823Z,15.13
2019-03-30T11:05:07.360Z,16.52
2019-03-30T11:07:35.708Z,13.87
2019-03-30T11:10:05.505Z,13.20
2019-03-30T11:12:33.800Z,16.27
2019-03-30T11:15:02.290Z,17.00
2019-03-30T11:17:30.688Z,12.33
2019-03-30T11:19:58.988Z,17.55
2019-03-30T11:22:27.320Z,15.80
2019-03-30T11:25:06.523Z,14.23
2019-03-30T11:27:25.748Z,14.25
2019-03-30T11:29:54.364Z,15.50
2019-03-30T11:32:22.598Z,11.50
2019-03-30T11:34:51.045Z,12.05
2019-03-30T11:37:19.403Z,16.00
2019-03-30T11:39:47.824Z,13.30
2019-03-30T11:42:16.237Z,15.40
2019-03-30T11:44:44.477Z,12.10
2019-03-30T11:47:12.849Z,13.88
2019-03-30T11:49:41.273Z,13.08
2019-03-30T11:52:09.691Z,13.45
2019-03-30T11:54:37.961Z,15.28
2019-03-30T11:57:06.223Z,9.68
2019-03-30T11:59:34.710Z,14.43
2019-03-30T12:02:03.254Z,14.58
2019-03-30T12:04:31.707Z,17.87
2019-03-30T12:06:59.998Z,16.02
2019-03-30T12:09:28.415Z,16.48
2019-03-30T12:11:56.799Z,15.35
2019-03-30T12:14:25.258Z,15.28
2019-03-30T12:16:53.748Z,15.35
2019-03-30T12:19:22.136Z,18.02
2019-03-30T12:21:50.419Z,15.63
2019-03-30T12:24:18.711Z,15.60
2019-03-30T12:26:47.012Z,11.78
2019-03-30T12:29:15.443Z,14.53
2019-03-30T12:31:43.715Z,14.70
2019-03-30T12:34:13.157Z,18.37
2019-03-30T12:36:41.710Z,17.10
2019-03-30T12:39:10.183Z,17.55
2019-03-30T12:41:38.699Z,16.15
2019-03-30T12:44:07.009Z,15.83
2019-03-30T12:46:35.435Z,16.87
2019-03-30T12:49:03.817Z,12.70
2019-03-30T12:51:32.074Z,13.90
2019-03-30T12:54:00.426Z,12.95
2019-03-30T12:56:28.825Z,16.57
2019-03-30T12:58:57.164Z,13.72
2019-03-30T13:01:25.720Z,17.98
2019-03-30T13:03:53.989Z,12.85
2019-03-30T13:06:22.434Z,15.95
2019-03-30T13:08:50.751Z,11.38
2019-03-30T13:11:19.151Z,15.50
2019-03-30T13:13:47.719Z,12.58
2019-03-30T13:16:16.022Z,12.43
2019-03-30T13:18:44.464Z,14.43
2019-03-30T13:21:13.001Z,17.07
2019-03-30T13:23:41.470Z,19.65
2019-03-30T13:26:09.669Z,17.42
2019-03-30T13:28:38.193Z,17.82
2019-03-30T13:31:06.464Z,18.40
2019-03-30T13:33:34.752Z,20.15
2019-03-30T13:36:04.723Z,16.95
2019-03-30T13:38:32.991Z,20.00
2019-03-30T13:41:01.184Z,21.50
2019-03-30T13:43:29.764Z,25.25
2019-03-30T13:45:58.193Z,22.40
2019-03-30T13:48:26.799Z,22.85
2019-03-30T13:50:55.221Z,25.32
2019-03-30T13:53:23.775Z,28.45
2019-03-30T13:55:52.151Z,27.52
2019-03-30T13:58:20.576Z,26.15
2019-03-30T14:00:48.913Z,24.77
2019-03-30T14:03:17.291Z,25.00
2019-03-30T14:05:45.732Z,26.00
2019-03-30T14:08:14.051Z,24.70
2019-03-30T14:10:42.504Z,24.55
2019-03-30T14:13:10.970Z,25.02
2019-03-30T14:15:39.327Z,17.90
2019-03-30T14:18:07.712Z,22.98
2019-03-30T14:20:36.038Z,24.52
2019-03-30T14:23:04.591Z,27.27
2019-03-30T14:25:33.025Z,23.05
2019-03-30T14:28:02.502Z,29.77
2019-03-30T14:30:30.973Z,27.58
2019-03-30T14:32:59.363Z,26.62
2019-03-30T14:35:27.746Z,22.70
2019-03-30T14:37:56.211Z,25.90
2019-03-30T14:40:24.605Z,25.32
2019-03-30T14:42:53.077Z,25.88
2019-03-30T14:45:21.505Z,24.52
2019-03-30T14:47:49.701Z,21.80
2019-03-30T14:50:18.138Z,25.92
2019-03-30T14:52:46.481Z,23.12
2019-03-30T14:55:14.843Z,26.30
2019-03-30T14:57:43.083Z,25.30
2019-03-30T15:00:11.661Z,24.25
2019-03-30T15:02:40.319Z,26.20
2019-03-30T15:05:09.073Z,23.98
2019-03-30T15:07:37.385Z,24.12
2019-03-30T15:10:08.331Z,23.18
2019-03-30T15:12:37.212Z,29.27
2019-03-30T15:15:07.112Z,24.15
2019-03-30T15:17:35.692Z,23.75
2019-03-30T15:20:05.721Z,22.70
2019-03-30T15:22:35.689Z,26.12
2019-03-30T15:25:05.446Z,23.85
2019-03-30T15:27:33.709Z,22.15
2019-03-30T15:30:02.226Z,27.17
2019-03-30T15:32:31.792Z,21.37
2019-03-30T15:35:00.155Z,22.67
2019-03-30T15:37:28.565Z,22.55
2019-03-30T15:39:57.415Z,24.40
2019-03-30T15:42:25.796Z,24.10
2019-03-30T15:44:54.140Z,25.37
2019-03-30T15:47:22.613Z,22.70
2019-03-30T15:49:51.100Z,20.55
2019-03-30T15:52:20.564Z,24.82
2019-03-30T15:54:49.029Z,26.40
2019-03-30T15:57:17.491Z,17.45
2019-03-30T15:59:46.159Z,25.25
2019-03-30T16:02:14.850Z,24.72
2019-03-30T16:04:43.304Z,22.73
2019-03-30T16:07:11.524Z,23.00
2019-03-30T16:09:39.952Z,21.30
2019-03-30T16:12:08.286Z,21.55
2019-03-30T16:14:36.712Z,17.45
2019-03-30T16:17:05.065Z,22.90
2019-03-30T16:19:33.592Z,27.17
2019-03-30T16:22:01.992Z,18.52
2019-03-30T16:24:30.377Z,21.97
2019-03-30T16:26:58.740Z,27.85
2019-03-30T16:29:27.211Z,21.23
2019-03-30T16:31:55.680Z,21.30
2019-03-30T16:34:24.111Z,25.23
2019-03-30T16:36:52.592Z,17.97
2019-03-30T16:39:20.949Z,23.00
2019-03-30T16:41:49.404Z,12.83
2019-03-30T16:44:17.943Z,26.70
2019-03-30T16:46:46.368Z,28.07
2019-03-30T16:49:14.763Z,26.30
2019-03-30T16:51:43.192Z,27.23
2019-03-30T16:54:11.624Z,27.70
2019-03-30T16:56:39.945Z,28.13
2019-03-30T16:59:08.412Z,28.33
2019-03-30T17:01:36.703Z,28.90
2019-03-30T17:04:05.075Z,30.97
2019-03-30T17:06:33.471Z,30.23
2019-03-30T17:09:01.791Z,30.90
2019-03-30T17:11:31.705Z,33.87
2019-03-30T17:14:00.149Z,34.00
2019-03-30T17:16:28.511Z,32.33
2019-03-30T17:18:56.891Z,30.37
2019-03-30T17:21:26.614Z,32.43
2019-03-30T17:23:56.043Z,32.07
2019-03-30T17:26:24.453Z,31.73
2019-03-30T17:28:52.851Z,31.63
2019-03-30T17:31:21.324Z,33.67
2019-03-30T17:33:49.678Z,32.13
2019-03-30T17:36:18.056Z,32.37
2019-03-30T17:38:46.571Z,32.63
2019-03-30T17:41:14.907Z,32.17
2019-03-30T17:43:43.138Z,33.10
2019-03-30T17:46:11.369Z,30.17
2019-03-30T17:48:39.642Z,33.13
2019-03-30T17:51:08.228Z,35.80
2019-03-30T17:53:39.331Z,31.47
2019-03-30T17:56:06.503Z,32.10
2019-03-30T17:58:34.831Z,33.97
2019-03-30T18:01:03.194Z,34.83
2019-03-30T18:03:31.548Z,34.27
2019-03-30T18:06:00.951Z,33.10
2019-03-30T18:08:30.564Z,30.20
2019-03-30T18:10:58.892Z,34.87
2019-03-30T18:13:29.211Z,34.90
2019-03-30T18:15:57.703Z,34.27
2019-03-30T18:18:26.001Z,38.53
2019-03-30T18:20:55.353Z,38.00
2019-03-30T18:23:24.855Z,43.57
2019-03-30T18:25:53.232Z,39.13
2019-03-30T18:28:27.317Z,45.83
2019-03-30T18:30:51.825Z,43.47
2019-03-30T18:33:20.063Z,42.20
2019-03-30T18:35:48.991Z,33.80
2019-03-30T18:38:17.610Z,43.00
2019-03-30T18:40:46.013Z,42.37
2019-03-30T18:43:14.455Z,42.80
2019-03-30T18:45:42.940Z,44.37
2019-03-30T18:48:12.717Z,42.80
2019-03-30T18:50:41.427Z,40.80
2019-03-30T18:53:12.328Z,40.37
2019-03-30T18:55:41.226Z,39.70
2019-03-30T18:58:11.195Z,50.13
2019-03-30T19:00:39.593Z,47.13
2019-03-30T19:03:12.638Z,41.53
2019-03-30T19:05:42.170Z,37.53
2019-03-30T19:08:13.428Z,31.47
2019-03-30T19:10:41.833Z,32.17
2019-03-30T19:13:10.359Z,32.80
2019-03-30T19:15:38.766Z,28.80
2019-03-30T19:18:07.233Z,34.40
2019-03-30T19:20:36.601Z,38.00
2019-03-30T19:23:04.850Z,39.07
2019-03-30T19:25:33.391Z,36.07
2019-03-30T19:28:01.646Z,35.80
2019-03-30T19:30:29.851Z,34.67
2019-03-30T19:33:12.409Z,37.37
2019-03-30T19:35:55.677Z,33.97
2019-03-30T19:38:44.016Z,36.30
2019-03-30T19:41:48.000Z,37.93
2019-03-30T19:44:36.828Z,35.43
2019-03-30T19:47:38.615Z,35.23
2019-03-30T19:50:43.215Z,33.83
2019-03-30T19:53:49.456Z,34.97
2019-03-30T19:56:34.494Z,35.60
2019-03-30T19:59:34.980Z,32.73
2019-03-30T20:02:42.856Z,39.03
2019-03-30T20:08:58.269Z,36.60
2019-03-30T20:12:05.754Z,39.10
2019-03-30T20:14:57.792Z,36.63
2019-03-30T20:17:37.244Z,37.87
2019-03-30T20:20:22.911Z,38.57
2019-03-30T20:23:19.196Z,39.03
2019-03-30T20:25:54.376Z,39.70
2019-03-30T20:28:23.351Z,47.53
2019-03-30T20:30:51.631Z,49.07
2019-03-30T20:33:20.295Z,36.40
2019-03-30T20:35:48.723Z,38.60
2019-03-30T20:38:17.207Z,36.20
2019-03-30T20:40:45.801Z,42.43
2019-03-30T20:43:14.173Z,41.70
2019-03-30T20:45:44.510Z,37.80
2019-03-30T20:48:13.450Z,45.60
2019-03-30T20:50:43.004Z,43.57
2019-03-30T20:53:11.889Z,42.77
2019-03-30T20:55:40.165Z,43.03
2019-03-30T20:58:08.834Z,45.23
2019-03-30T21:00:37.271Z,42.13
2019-03-30T21:03:05.713Z,45.87
2019-03-30T21:05:33.949Z,44.53
2019-03-30T21:08:02.274Z,44.23
2019-03-30T21:10:30.751Z,44.23
2019-03-30T21:12:59.173Z,45.33
2019-03-30T21:15:27.509Z,41.00
2019-03-30T21:17:57.071Z,41.80
2019-03-30T21:20:26.684Z,44.47
2019-03-30T21:22:54.899Z,44.93
2019-03-30T21:25:23.399Z,37.33
2019-03-30T21:27:51.736Z,39.03
2019-03-30T21:30:20.091Z,42.93
2019-03-30T21:32:48.452Z,41.93
2019-03-30T21:35:18.181Z,38.33
2019-03-30T21:37:48.594Z,39.23
2019-03-30T21:40:17.042Z,41.93
2019-03-30T21:42:45.539Z,42.37
2019-03-30T21:45:13.909Z,53.17
2019-03-30T21:47:42.402Z,50.87
2019-03-30T21:50:10.780Z,51.27
2019-03-30T21:52:38.991Z,54.20
2019-03-30T21:55:07.798Z,55.57
2019-03-30T21:57:36.185Z,52.07
2019-03-30T22:00:10.389Z,48.63
2019-03-30T22:02:37.831Z,45.37
2019-03-30T22:05:06.479Z,54.77
2019-03-30T22:07:34.943Z,49.33
2019-03-30T22:10:04.788Z,52.67
2019-03-30T22:12:33.137Z,64.33
2019-03-30T22:15:01.516Z,61.10
2019-03-30T22:17:29.807Z,63.13
2019-03-30T22:19:58.142Z,61.77
2019-03-30T22:22:26.979Z,62.97
2019-03-30T22:24:55.127Z,61.03
2019-03-30T22:27:23.519Z,60.80
2019-03-30T22:29:51.966Z,60.60
2019-03-30T22:32:20.164Z,60.97
2019-03-30T22:34:48.559Z,57.57
2019-03-30T22:37:16.878Z,56.73
2019-03-30T22:39:46.459Z,53.10
2019-03-30T22:42:16.079Z,58.03
2019-03-30T22:44:44.464Z,51.47
2019-03-30T22:47:12.786Z,43.00
2019-03-30T22:49:41.185Z,47.77
2019-03-30T22:52:09.362Z,46.63
2019-03-30T22:54:37.551Z,47.20
2019-03-30T22:57:05.830Z,53.97
2019-03-30T22:59:34.018Z,54.90
2019-03-30T23:02:03.920Z,53.83
2019-03-30T23:04:32.286Z,50.17
2019-03-30T23:07:00.573Z,50.00
2019-03-30T23:09:28.851Z,51.37
2019-03-30T23:11:57.115Z,52.20
2019-03-30T23:14:25.337Z,51.07
2019-03-30T23:16:53.742Z,46.57
2019-03-30T23:19:22.133Z,47.57
2019-03-30T23:21:50.543Z,47.23
2019-03-30T23:24:19.931Z,52.90
2019-03-30T23:26:48.683Z,44.97
2019-03-30T23:29:17.106Z,45.03
2019-03-30T23:31:45.599Z,45.53
2019-03-30T23:34:14.862Z,48.07
2019-03-30T23:36:43.365Z,46.80
2019-03-30T23:39:11.740Z,47.37
2019-03-30T23:41:44.161Z,46.60
2019-03-30T23:44:14.004Z,44.70
2019-03-30T23:46:42.453Z,51.87
2019-03-30T23:49:11.610Z,51.20
2019-03-30T23:51:39.999Z,46.47
2019-03-30T23:54:09.831Z,47.20
2019-03-30T23:56:38.254Z,42.23
2019-03-30T23:59:06.723Z,39.90
